sensor_id;sensor_type;location;lat;lon;timestamp;P1;durP1;ratioP1;P2;durP2;ratioP2
18720;SDS011;9489;50.948;3.114;2023-02-18T00:01:10;10.52;;;8.48;;
18720;SDS011;9489;50.948;3.114;2023-02-18T00:03:38;9.30;;;8.40;;
18720;SDS011;9489;50.948;3.114;2023-02-18T00:06:11;9.25;;;8.35;;
18720;SDS011;9489;50.948;3.114;2023-02-18T00:08:58;9.18;;;7.75;;
18720;SDS011;9489;50.948;3.114;2023-02-18T00:11:26;9.70;;;7.68;;
18720;SDS011;9489;50.948;3.114;2023-02-18T00:13:54;8.77;;;7.78;;
18720;SDS011;9489;50.948;3.114;2023-02-18T00:16:21;8.32;;;7.43;;
18720;SDS011;9489;50.948;3.114;2023-02-18T00:18:48;8.45;;;7.65;;
18720;SDS011;9489;50.948;3.114;2023-02-18T00:21:14;8.30;;;7.50;;
18720;SDS011;9489;50.948;3.114;2023-02-18T00:23:40;8.35;;;7.45;;
18720;SDS011;9489;50.948;3.114;2023-02-18T00:26:15;8.68;;;7.88;;
18720;SDS011;9489;50.948;3.114;2023-02-18T00:28:42;9.43;;;8.45;;
18720;SDS011;9489;50.948;3.114;2023-02-18T00:31:09;10.02;;;9.02;;
18720;SDS011;9489;50.948;3.114;2023-02-18T00:33:39;9.98;;;9.00;;
18720;SDS011;9489;50.948;3.114;2023-02-18T00:36:07;10.00;;;8.93;;
18720;SDS011;9489;50.948;3.114;2023-02-18T00:38:34;8.57;;;7.78;;
18720;SDS011;9489;50.948;3.114;2023-02-18T00:41:00;8.73;;;7.82;;
18720;SDS011;9489;50.948;3.114;2023-02-18T00:43:26;10.27;;;8.02;;
18720;SDS011;9489;50.948;3.114;2023-02-18T00:45:52;8.77;;;7.93;;
18720;SDS011;9489;50.948;3.114;2023-02-18T00:48:18;11.05;;;9.95;;
18720;SDS011;9489;50.948;3.114;2023-02-18T00:50:44;10.27;;;9.38;;
18720;SDS011;9489;50.948;3.114;2023-02-18T00:53:10;11.32;;;10.20;;
18720;SDS011;9489;50.948;3.114;2023-02-18T00:55:39;11.65;;;10.45;;
18720;SDS011;9489;50.948;3.114;2023-02-18T00:58:06;10.95;;;9.95;;
18720;SDS011;9489;50.948;3.114;2023-02-18T01:00:32;10.77;;;9.77;;
18720;SDS011;9489;50.948;3.114;2023-02-18T01:02:57;11.38;;;10.25;;
18720;SDS011;9489;50.948;3.114;2023-02-18T01:05:23;10.13;;;9.10;;
18720;SDS011;9489;50.948;3.114;2023-02-18T01:07:49;11.30;;;10.20;;
18720;SDS011;9489;50.948;3.114;2023-02-18T01:10:14;12.25;;;10.48;;
18720;SDS011;9489;50.948;3.114;2023-02-18T01:12:40;9.98;;;9.07;;
18720;SDS011;9489;50.948;3.114;2023-02-18T01:15:06;10.40;;;9.43;;
18720;SDS011;9489;50.948;3.114;2023-02-18T01:17:32;10.02;;;9.07;;
18720;SDS011;9489;50.948;3.114;2023-02-18T01:19:57;11.43;;;10.32;;
18720;SDS011;9489;50.948;3.114;2023-02-18T01:22:23;11.63;;;10.63;;
18720;SDS011;9489;50.948;3.114;2023-02-18T01:24:52;11.73;;;10.73;;
18720;SDS011;9489;50.948;3.114;2023-02-18T01:27:18;12.80;;;11.70;;
18720;SDS011;9489;50.948;3.114;2023-02-18T01:29:43;12.60;;;11.43;;
18720;SDS011;9489;50.948;3.114;2023-02-18T01:32:09;11.68;;;10.60;;
18720;SDS011;9489;50.948;3.114;2023-02-18T01:34:36;11.60;;;10.60;;
18720;SDS011;9489;50.948;3.114;2023-02-18T01:37:01;11.68;;;10.48;;
18720;SDS011;9489;50.948;3.114;2023-02-18T01:39:27;11.10;;;9.18;;
18720;SDS011;9489;50.948;3.114;2023-02-18T01:41:52;9.45;;;8.55;;
18720;SDS011;9489;50.948;3.114;2023-02-18T01:44:22;8.73;;;7.93;;
18720;SDS011;9489;50.948;3.114;2023-02-18T01:46:51;7.70;;;7.10;;
18720;SDS011;9489;50.948;3.114;2023-02-18T01:49:17;7.20;;;6.50;;
18720;SDS011;9489;50.948;3.114;2023-02-18T01:51:48;8.60;;;6.30;;
18720;SDS011;9489;50.948;3.114;2023-02-18T01:54:25;6.78;;;6.18;;
18720;SDS011;9489;50.948;3.114;2023-02-18T01:56:55;6.32;;;5.07;;
18720;SDS011;9489;50.948;3.114;2023-02-18T01:59:37;6.90;;;5.07;;
18720;SDS011;9489;50.948;3.114;2023-02-18T02:02:10;6.28;;;5.50;;
18720;SDS011;9489;50.948;3.114;2023-02-18T02:04:37;6.57;;;5.18;;
18720;SDS011;9489;50.948;3.114;2023-02-18T02:07:03;5.95;;;5.38;;
18720;SDS011;9489;50.948;3.114;2023-02-18T02:09:29;5.70;;;5.20;;
18720;SDS011;9489;50.948;3.114;2023-02-18T02:15:05;5.70;;;5.22;;
18720;SDS011;9489;50.948;3.114;2023-02-18T02:45:25;6.15;;;4.55;;
18720;SDS011;9489;50.948;3.114;2023-02-18T02:47:58;4.70;;;4.30;;
18720;SDS011;9489;50.948;3.114;2023-02-18T02:53:33;5.68;;;4.63;;
18720;SDS011;9489;50.948;3.114;2023-02-18T02:56:00;6.93;;;4.68;;
18720;SDS011;9489;50.948;3.114;2023-02-18T02:58:26;7.20;;;5.22;;
18720;SDS011;9489;50.948;3.114;2023-02-18T03:01:03;5.55;;;4.45;;
18720;SDS011;9489;50.948;3.114;2023-02-18T03:06:40;4.75;;;4.35;;
18720;SDS011;9489;50.948;3.114;2023-02-18T03:12:46;5.40;;;4.80;;
18720;SDS011;9489;50.948;3.114;2023-02-18T03:15:25;5.28;;;4.53;;
18720;SDS011;9489;50.948;3.114;2023-02-18T03:18:17;5.82;;;5.30;;
18720;SDS011;9489;50.948;3.114;2023-02-18T03:20:54;5.00;;;4.60;;
18720;SDS011;9489;50.948;3.114;2023-02-18T03:23:28;6.30;;;5.75;;
18720;SDS011;9489;50.948;3.114;2023-02-18T03:26:01;5.03;;;4.63;;
18720;SDS011;9489;50.948;3.114;2023-02-18T03:28:28;6.10;;;4.68;;
18720;SDS011;9489;50.948;3.114;2023-02-18T03:30:58;5.55;;;5.05;;
18720;SDS011;9489;50.948;3.114;2023-02-18T03:33:36;5.32;;;4.82;;
18720;SDS011;9489;50.948;3.114;2023-02-18T03:36:07;5.70;;;5.15;;
18720;SDS011;9489;50.948;3.114;2023-02-18T03:41:00;6.20;;;5.70;;
18720;SDS011;9489;50.948;3.114;2023-02-18T03:43:27;6.00;;;5.50;;
18720;SDS011;9489;50.948;3.114;2023-02-18T03:45:53;8.50;;;5.65;;
18720;SDS011;9489;50.948;3.114;2023-02-18T03:48:18;6.55;;;5.95;;
18720;SDS011;9489;50.948;3.114;2023-02-18T03:50:44;6.70;;;5.40;;
18720;SDS011;9489;50.948;3.114;2023-02-18T03:53:10;6.65;;;6.05;;
18720;SDS011;9489;50.948;3.114;2023-02-18T03:55:35;6.28;;;5.50;;
18720;SDS011;9489;50.948;3.114;2023-02-18T03:58:01;6.35;;;5.85;;
18720;SDS011;9489;50.948;3.114;2023-02-18T04:00:27;6.20;;;5.70;;
18720;SDS011;9489;50.948;3.114;2023-02-18T04:02:52;7.38;;;5.43;;
18720;SDS011;9489;50.948;3.114;2023-02-18T04:05:18;5.30;;;4.82;;
18720;SDS011;9489;50.948;3.114;2023-02-18T04:07:43;6.82;;;6.22;;
18720;SDS011;9489;50.948;3.114;2023-02-18T04:10:09;7.25;;;6.38;;
18720;SDS011;9489;50.948;3.114;2023-02-18T04:12:36;7.18;;;6.43;;
18720;SDS011;9489;50.948;3.114;2023-02-18T04:15:01;7.10;;;6.40;;
18720;SDS011;9489;50.948;3.114;2023-02-18T04:17:27;7.65;;;6.90;;
18720;SDS011;9489;50.948;3.114;2023-02-18T04:19:53;9.35;;;7.63;;
18720;SDS011;9489;50.948;3.114;2023-02-18T04:22:18;8.10;;;6.70;;
18720;SDS011;9489;50.948;3.114;2023-02-18T04:24:44;7.82;;;7.00;;
18720;SDS011;9489;50.948;3.114;2023-02-18T04:27:09;9.40;;;7.30;;
18720;SDS011;9489;50.948;3.114;2023-02-18T04:29:35;8.95;;;7.22;;
18720;SDS011;9489;50.948;3.114;2023-02-18T04:32:00;10.15;;;7.10;;
18720;SDS011;9489;50.948;3.114;2023-02-18T04:34:26;12.93;;;7.65;;
18720;SDS011;9489;50.948;3.114;2023-02-18T04:36:52;10.85;;;6.93;;
18720;SDS011;9489;50.948;3.114;2023-02-18T04:39:17;12.25;;;6.60;;
18720;SDS011;9489;50.948;3.114;2023-02-18T04:41:43;15.52;;;5.55;;
18720;SDS011;9489;50.948;3.114;2023-02-18T04:44:09;13.55;;;5.25;;
18720;SDS011;9489;50.948;3.114;2023-02-18T04:46:34;12.82;;;4.63;;
18720;SDS011;9489;50.948;3.114;2023-02-18T04:49:00;13.90;;;4.45;;
18720;SDS011;9489;50.948;3.114;2023-02-18T04:51:26;19.42;;;4.55;;
18720;SDS011;9489;50.948;3.114;2023-02-18T04:53:51;17.92;;;4.53;;
18720;SDS011;9489;50.948;3.114;2023-02-18T04:56:17;15.07;;;3.58;;
18720;SDS011;9489;50.948;3.114;2023-02-18T04:58:42;15.38;;;3.50;;
18720;SDS011;9489;50.948;3.114;2023-02-18T05:01:09;11.70;;;3.38;;
18720;SDS011;9489;50.948;3.114;2023-02-18T05:03:34;19.40;;;3.95;;
18720;SDS011;9489;50.948;3.114;2023-02-18T05:06:00;13.23;;;4.45;;
18720;SDS011;9489;50.948;3.114;2023-02-18T05:08:26;8.48;;;3.10;;
18720;SDS011;9489;50.948;3.114;2023-02-18T05:10:51;12.48;;;3.90;;
18720;SDS011;9489;50.948;3.114;2023-02-18T05:13:17;11.85;;;2.78;;
18720;SDS011;9489;50.948;3.114;2023-02-18T05:15:43;15.25;;;3.47;;
18720;SDS011;9489;50.948;3.114;2023-02-18T05:18:08;9.30;;;2.63;;
18720;SDS011;9489;50.948;3.114;2023-02-18T05:20:34;13.52;;;3.40;;
18720;SDS011;9489;50.948;3.114;2023-02-18T05:23:00;10.30;;;2.50;;
18720;SDS011;9489;50.948;3.114;2023-02-18T05:25:25;11.23;;;2.78;;
18720;SDS011;9489;50.948;3.114;2023-02-18T05:27:51;7.05;;;2.65;;
18720;SDS011;9489;50.948;3.114;2023-02-18T05:30:17;13.05;;;2.78;;
18720;SDS011;9489;50.948;3.114;2023-02-18T05:32:43;12.05;;;2.67;;
18720;SDS011;9489;50.948;3.114;2023-02-18T05:35:08;14.07;;;3.15;;
18720;SDS011;9489;50.948;3.114;2023-02-18T05:37:34;13.43;;;3.45;;
18720;SDS011;9489;50.948;3.114;2023-02-18T05:40:00;8.98;;;2.80;;
18720;SDS011;9489;50.948;3.114;2023-02-18T05:42:25;11.80;;;2.95;;
18720;SDS011;9489;50.948;3.114;2023-02-18T05:44:51;8.48;;;2.72;;
18720;SDS011;9489;50.948;3.114;2023-02-18T05:47:16;12.00;;;3.10;;
18720;SDS011;9489;50.948;3.114;2023-02-18T05:49:42;11.77;;;2.63;;
18720;SDS011;9489;50.948;3.114;2023-02-18T05:52:08;10.63;;;3.15;;
18720;SDS011;9489;50.948;3.114;2023-02-18T05:54:34;10.35;;;2.83;;
18720;SDS011;9489;50.948;3.114;2023-02-18T05:57:00;12.48;;;3.60;;
18720;SDS011;9489;50.948;3.114;2023-02-18T05:59:26;12.98;;;3.42;;
18720;SDS011;9489;50.948;3.114;2023-02-18T06:01:52;14.45;;;3.00;;
18720;SDS011;9489;50.948;3.114;2023-02-18T06:04:18;7.78;;;2.88;;
18720;SDS011;9489;50.948;3.114;2023-02-18T06:06:44;12.27;;;3.35;;
18720;SDS011;9489;50.948;3.114;2023-02-18T06:09:10;9.43;;;2.95;;
18720;SDS011;9489;50.948;3.114;2023-02-18T06:11:36;9.82;;;2.75;;
18720;SDS011;9489;50.948;3.114;2023-02-18T06:14:02;10.98;;;2.55;;
18720;SDS011;9489;50.948;3.114;2023-02-18T06:16:28;12.13;;;2.40;;
18720;SDS011;9489;50.948;3.114;2023-02-18T06:18:54;9.52;;;2.88;;
18720;SDS011;9489;50.948;3.114;2023-02-18T06:21:19;12.50;;;3.00;;
18720;SDS011;9489;50.948;3.114;2023-02-18T06:23:45;9.80;;;3.13;;
18720;SDS011;9489;50.948;3.114;2023-02-18T06:26:11;8.43;;;2.70;;
18720;SDS011;9489;50.948;3.114;2023-02-18T06:28:37;8.70;;;2.78;;
18720;SDS011;9489;50.948;3.114;2023-02-18T06:31:02;10.93;;;2.33;;
18720;SDS011;9489;50.948;3.114;2023-02-18T06:33:28;9.30;;;2.67;;
18720;SDS011;9489;50.948;3.114;2023-02-18T06:35:58;11.33;;;3.30;;
18720;SDS011;9489;50.948;3.114;2023-02-18T06:38:25;8.43;;;2.38;;
18720;SDS011;9489;50.948;3.114;2023-02-18T06:40:52;10.48;;;2.45;;
18720;SDS011;9489;50.948;3.114;2023-02-18T06:43:17;11.32;;;3.10;;
18720;SDS011;9489;50.948;3.114;2023-02-18T06:45:43;10.95;;;3.25;;
18720;SDS011;9489;50.948;3.114;2023-02-18T06:48:09;9.10;;;2.83;;
18720;SDS011;9489;50.948;3.114;2023-02-18T06:50:35;10.10;;;2.13;;
18720;SDS011;9489;50.948;3.114;2023-02-18T06:53:01;11.23;;;2.30;;
18720;SDS011;9489;50.948;3.114;2023-02-18T06:55:26;8.93;;;2.47;;
18720;SDS011;9489;50.948;3.114;2023-02-18T06:57:52;9.45;;;2.47;;
18720;SDS011;9489;50.948;3.114;2023-02-18T07:00:18;9.15;;;2.40;;
18720;SDS011;9489;50.948;3.114;2023-02-18T07:02:44;7.63;;;2.22;;
18720;SDS011;9489;50.948;3.114;2023-02-18T07:05:09;5.97;;;2.00;;
18720;SDS011;9489;50.948;3.114;2023-02-18T07:07:35;12.70;;;3.03;;
18720;SDS011;9489;50.948;3.114;2023-02-18T07:10:01;11.68;;;3.80;;
18720;SDS011;9489;50.948;3.114;2023-02-18T07:12:26;10.90;;;2.95;;
18720;SDS011;9489;50.948;3.114;2023-02-18T07:14:52;16.10;;;2.80;;
18720;SDS011;9489;50.948;3.114;2023-02-18T07:17:18;11.38;;;3.35;;
18720;SDS011;9489;50.948;3.114;2023-02-18T07:19:44;12.10;;;2.75;;
18720;SDS011;9489;50.948;3.114;2023-02-18T07:22:09;10.25;;;2.42;;
18720;SDS011;9489;50.948;3.114;2023-02-18T07:24:35;6.97;;;2.22;;
18720;SDS011;9489;50.948;3.114;2023-02-18T07:27:00;12.10;;;2.97;;
18720;SDS011;9489;50.948;3.114;2023-02-18T07:29:26;10.82;;;2.33;;
18720;SDS011;9489;50.948;3.114;2023-02-18T07:31:52;10.68;;;2.42;;
18720;SDS011;9489;50.948;3.114;2023-02-18T07:34:18;12.75;;;2.92;;
18720;SDS011;9489;50.948;3.114;2023-02-18T07:36:44;10.48;;;2.55;;
18720;SDS011;9489;50.948;3.114;2023-02-18T07:39:10;9.25;;;2.25;;
18720;SDS011;9489;50.948;3.114;2023-02-18T07:41:36;8.23;;;2.35;;
18720;SDS011;9489;50.948;3.114;2023-02-18T07:44:03;7.45;;;2.40;;
18720;SDS011;9489;50.948;3.114;2023-02-18T07:46:29;9.40;;;1.90;;
18720;SDS011;9489;50.948;3.114;2023-02-18T07:48:58;5.25;;;2.58;;
18720;SDS011;9489;50.948;3.114;2023-02-18T07:51:23;9.68;;;2.42;;
18720;SDS011;9489;50.948;3.114;2023-02-18T07:53:49;7.68;;;2.53;;
18720;SDS011;9489;50.948;3.114;2023-02-18T07:56:15;6.38;;;2.15;;
18720;SDS011;9489;50.948;3.114;2023-02-18T07:58:42;10.95;;;2.47;;
18720;SDS011;9489;50.948;3.114;2023-02-18T08:01:09;8.13;;;2.42;;
18720;SDS011;9489;50.948;3.114;2023-02-18T08:03:37;7.85;;;2.85;;
18720;SDS011;9489;50.948;3.114;2023-02-18T08:06:03;6.28;;;1.70;;
18720;SDS011;9489;50.948;3.114;2023-02-18T08:08:29;7.20;;;1.98;;
18720;SDS011;9489;50.948;3.114;2023-02-18T08:11:00;9.40;;;1.98;;
18720;SDS011;9489;50.948;3.114;2023-02-18T08:13:31;9.52;;;2.63;;
18720;SDS011;9489;50.948;3.114;2023-02-18T08:15:57;7.53;;;1.80;;
18720;SDS011;9489;50.948;3.114;2023-02-18T08:18:23;7.28;;;2.00;;
18720;SDS011;9489;50.948;3.114;2023-02-18T08:20:50;5.35;;;1.50;;
18720;SDS011;9489;50.948;3.114;2023-02-18T08:23:17;7.22;;;2.60;;
18720;SDS011;9489;50.948;3.114;2023-02-18T08:25:44;8.13;;;2.33;;
18720;SDS011;9489;50.948;3.114;2023-02-18T08:28:12;7.68;;;1.92;;
18720;SDS011;9489;50.948;3.114;2023-02-18T08:30:38;8.77;;;2.70;;
18720;SDS011;9489;50.948;3.114;2023-02-18T08:33:07;8.75;;;2.10;;
18720;SDS011;9489;50.948;3.114;2023-02-18T08:35:33;9.30;;;2.17;;
18720;SDS011;9489;50.948;3.114;2023-02-18T08:37:59;7.53;;;2.40;;
18720;SDS011;9489;50.948;3.114;2023-02-18T08:40:24;8.70;;;2.38;;
18720;SDS011;9489;50.948;3.114;2023-02-18T08:42:50;9.32;;;2.17;;
18720;SDS011;9489;50.948;3.114;2023-02-18T08:45:15;10.18;;;2.00;;
18720;SDS011;9489;50.948;3.114;2023-02-18T08:47:41;9.82;;;2.67;;
18720;SDS011;9489;50.948;3.114;2023-02-18T08:50:07;8.43;;;2.65;;
18720;SDS011;9489;50.948;3.114;2023-02-18T08:52:33;7.28;;;2.35;;
18720;SDS011;9489;50.948;3.114;2023-02-18T08:54:59;10.70;;;2.92;;
18720;SDS011;9489;50.948;3.114;2023-02-18T08:57:26;11.73;;;2.80;;
18720;SDS011;9489;50.948;3.114;2023-02-18T08:59:52;8.82;;;2.30;;
18720;SDS011;9489;50.948;3.114;2023-02-18T09:02:18;6.43;;;2.15;;
18720;SDS011;9489;50.948;3.114;2023-02-18T09:04:43;12.32;;;2.60;;
18720;SDS011;9489;50.948;3.114;2023-02-18T09:07:09;8.43;;;1.92;;
18720;SDS011;9489;50.948;3.114;2023-02-18T09:09:35;10.38;;;2.40;;
18720;SDS011;9489;50.948;3.114;2023-02-18T09:12:01;11.23;;;2.75;;
18720;SDS011;9489;50.948;3.114;2023-02-18T09:14:28;12.90;;;2.65;;
18720;SDS011;9489;50.948;3.114;2023-02-18T09:16:55;10.18;;;2.70;;
18720;SDS011;9489;50.948;3.114;2023-02-18T09:19:22;10.48;;;2.53;;
18720;SDS011;9489;50.948;3.114;2023-02-18T09:21:48;8.25;;;2.53;;
18720;SDS011;9489;50.948;3.114;2023-02-18T09:24:13;8.27;;;2.80;;
18720;SDS011;9489;50.948;3.114;2023-02-18T09:26:39;11.65;;;2.80;;
18720;SDS011;9489;50.948;3.114;2023-02-18T09:29:05;10.13;;;2.85;;
18720;SDS011;9489;50.948;3.114;2023-02-18T09:31:31;10.90;;;3.33;;
18720;SDS011;9489;50.948;3.114;2023-02-18T09:33:58;10.88;;;2.50;;
18720;SDS011;9489;50.948;3.114;2023-02-18T09:36:25;12.95;;;2.95;;
18720;SDS011;9489;50.948;3.114;2023-02-18T09:38:51;10.98;;;2.65;;
18720;SDS011;9489;50.948;3.114;2023-02-18T09:44:02;14.65;;;3.25;;
18720;SDS011;9489;50.948;3.114;2023-02-18T09:46:35;12.10;;;3.53;;
18720;SDS011;9489;50.948;3.114;2023-02-18T09:49:06;11.73;;;2.90;;
18720;SDS011;9489;50.948;3.114;2023-02-18T09:51:41;13.88;;;3.47;;
18720;SDS011;9489;50.948;3.114;2023-02-18T09:54:09;11.43;;;3.00;;
18720;SDS011;9489;50.948;3.114;2023-02-18T09:56:39;10.25;;;2.90;;
18720;SDS011;9489;50.948;3.114;2023-02-18T09:59:10;9.23;;;2.83;;
18720;SDS011;9489;50.948;3.114;2023-02-18T10:01:40;13.80;;;3.88;;
18720;SDS011;9489;50.948;3.114;2023-02-18T10:04:18;13.70;;;3.40;;
18720;SDS011;9489;50.948;3.114;2023-02-18T10:06:50;11.93;;;2.97;;
18720;SDS011;9489;50.948;3.114;2023-02-18T10:09:23;10.88;;;2.92;;
18720;SDS011;9489;50.948;3.114;2023-02-18T10:12:17;10.18;;;2.75;;
18720;SDS011;9489;50.948;3.114;2023-02-18T10:14:43;12.52;;;3.22;;
18720;SDS011;9489;50.948;3.114;2023-02-18T10:17:31;10.85;;;3.15;;
18720;SDS011;9489;50.948;3.114;2023-02-18T10:19:57;9.27;;;2.85;;
18720;SDS011;9489;50.948;3.114;2023-02-18T10:22:24;11.52;;;3.45;;
18720;SDS011;9489;50.948;3.114;2023-02-18T10:24:52;11.15;;;2.83;;
18720;SDS011;9489;50.948;3.114;2023-02-18T10:27:23;11.82;;;3.08;;
18720;SDS011;9489;50.948;3.114;2023-02-18T10:29:55;7.65;;;2.80;;
18720;SDS011;9489;50.948;3.114;2023-02-18T10:32:46;8.13;;;2.78;;
18720;SDS011;9489;50.948;3.114;2023-02-18T10:51:50;5.95;;;2.17;;
18720;SDS011;9489;50.948;3.114;2023-02-18T10:54:22;8.63;;;2.38;;
18720;SDS011;9489;50.948;3.114;2023-02-18T10:56:50;9.35;;;2.80;;
18720;SDS011;9489;50.948;3.114;2023-02-18T10:59:21;6.20;;;2.17;;
18720;SDS011;9489;50.948;3.114;2023-02-18T11:01:53;5.43;;;2.33;;
18720;SDS011;9489;50.948;3.114;2023-02-18T11:04:25;6.43;;;2.08;;
18720;SDS011;9489;50.948;3.114;2023-02-18T11:07:02;8.02;;;2.03;;
18720;SDS011;9489;50.948;3.114;2023-02-18T11:09:33;9.35;;;2.38;;
18720;SDS011;9489;50.948;3.114;2023-02-18T11:15:05;8.65;;;2.42;;
18720;SDS011;9489;50.948;3.114;2023-02-18T11:17:38;10.20;;;2.50;;
18720;SDS011;9489;50.948;3.114;2023-02-18T11:20:26;6.30;;;1.92;;
18720;SDS011;9489;50.948;3.114;2023-02-18T11:23:11;7.60;;;2.30;;
18720;SDS011;9489;50.948;3.114;2023-02-18T11:25:40;8.18;;;2.15;;
18720;SDS011;9489;50.948;3.114;2023-02-18T11:30:43;6.00;;;1.67;;
18720;SDS011;9489;50.948;3.114;2023-02-18T11:33:17;10.00;;;2.78;;
18720;SDS011;9489;50.948;3.114;2023-02-18T11:35:50;8.30;;;2.30;;
18720;SDS011;9489;50.948;3.114;2023-02-18T11:38:43;8.80;;;2.50;;
18720;SDS011;9489;50.948;3.114;2023-02-18T11:41:09;12.43;;;2.78;;
18720;SDS011;9489;50.948;3.114;2023-02-18T11:43:40;8.23;;;2.58;;
18720;SDS011;9489;50.948;3.114;2023-02-18T11:46:10;9.90;;;2.60;;
18720;SDS011;9489;50.948;3.114;2023-02-18T11:48:37;7.53;;;2.10;;
18720;SDS011;9489;50.948;3.114;2023-02-18T11:51:03;10.70;;;3.17;;
18720;SDS011;9489;50.948;3.114;2023-02-18T11:53:33;6.88;;;2.08;;
18720;SDS011;9489;50.948;3.114;2023-02-18T11:56:01;8.20;;;2.28;;
18720;SDS011;9489;50.948;3.114;2023-02-18T11:58:41;9.57;;;2.83;;
18720;SDS011;9489;50.948;3.114;2023-02-18T12:04:04;5.75;;;2.47;;
18720;SDS011;9489;50.948;3.114;2023-02-18T12:06:42;10.23;;;2.60;;
18720;SDS011;9489;50.948;3.114;2023-02-18T12:09:25;8.23;;;2.50;;
18720;SDS011;9489;50.948;3.114;2023-02-18T12:12:25;8.30;;;2.13;;
18720;SDS011;9489;50.948;3.114;2023-02-18T12:14:55;13.20;;;2.60;;
18720;SDS011;9489;50.948;3.114;2023-02-18T12:25:23;12.30;;;3.72;;
18720;SDS011;9489;50.948;3.114;2023-02-18T12:31:04;8.52;;;3.33;;
18720;SDS011;9489;50.948;3.114;2023-02-18T12:46:55;10.05;;;2.88;;
18720;SDS011;9489;50.948;3.114;2023-02-18T12:50:02;7.18;;;2.92;;
18720;SDS011;9489;50.948;3.114;2023-02-18T13:09:41;11.95;;;3.72;;
18720;SDS011;9489;50.948;3.114;2023-02-18T13:12:18;11.15;;;3.67;;
18720;SDS011;9489;50.948;3.114;2023-02-18T13:14:52;8.77;;;3.75;;
18720;SDS011;9489;50.948;3.114;2023-02-18T13:17:30;12.18;;;3.10;;
18720;SDS011;9489;50.948;3.114;2023-02-18T13:20:00;9.30;;;3.28;;
18720;SDS011;9489;50.948;3.114;2023-02-18T13:22:59;9.50;;;3.28;;
18720;SDS011;9489;50.948;3.114;2023-02-18T13:25:25;9.18;;;3.60;;
18720;SDS011;9489;50.948;3.114;2023-02-18T13:28:19;14.25;;;4.40;;
18720;SDS011;9489;50.948;3.114;2023-02-18T13:39:03;16.45;;;4.53;;
18720;SDS011;9489;50.948;3.114;2023-02-18T13:41:37;8.95;;;4.25;;
18720;SDS011;9489;50.948;3.114;2023-02-18T13:44:07;9.82;;;3.97;;
18720;SDS011;9489;50.948;3.114;2023-02-18T13:46:48;10.80;;;4.20;;
18720;SDS011;9489;50.948;3.114;2023-02-18T13:49:25;9.35;;;4.05;;
18720;SDS011;9489;50.948;3.114;2023-02-18T13:52:02;12.93;;;4.47;;
18720;SDS011;9489;50.948;3.114;2023-02-18T13:57:04;13.13;;;5.30;;
18720;SDS011;9489;50.948;3.114;2023-02-18T14:04:52;12.65;;;4.18;;
18720;SDS011;9489;50.948;3.114;2023-02-18T14:09:50;15.13;;;4.22;;
18720;SDS011;9489;50.948;3.114;2023-02-18T14:12:25;13.10;;;3.95;;
18720;SDS011;9489;50.948;3.114;2023-02-18T14:15:00;13.73;;;3.95;;
18720;SDS011;9489;50.948;3.114;2023-02-18T14:22:32;13.20;;;3.58;;
18720;SDS011;9489;50.948;3.114;2023-02-18T14:28:33;11.35;;;2.97;;
18720;SDS011;9489;50.948;3.114;2023-02-18T14:33:36;7.18;;;3.05;;
18720;SDS011;9489;50.948;3.114;2023-02-18T14:42:10;9.85;;;4.55;;
18720;SDS011;9489;50.948;3.114;2023-02-18T14:48:13;7.65;;;3.25;;
18720;SDS011;9489;50.948;3.114;2023-02-18T14:51:05;7.32;;;3.30;;
18720;SDS011;9489;50.948;3.114;2023-02-18T14:53:31;7.82;;;3.70;;
18720;SDS011;9489;50.948;3.114;2023-02-18T14:56:03;11.38;;;4.22;;
18720;SDS011;9489;50.948;3.114;2023-02-18T14:58:36;9.20;;;4.78;;
18720;SDS011;9489;50.948;3.114;2023-02-18T15:01:12;8.23;;;3.25;;
18720;SDS011;9489;50.948;3.114;2023-02-18T15:03:43;7.07;;;3.53;;
18720;SDS011;9489;50.948;3.114;2023-02-18T15:08:48;7.22;;;3.33;;
18720;SDS011;9489;50.948;3.114;2023-02-18T15:11:14;8.43;;;3.83;;
18720;SDS011;9489;50.948;3.114;2023-02-18T15:13:41;8.90;;;3.92;;
18720;SDS011;9489;50.948;3.114;2023-02-18T15:16:13;6.30;;;3.28;;
18720;SDS011;9489;50.948;3.114;2023-02-18T15:18:43;8.18;;;3.33;;
18720;SDS011;9489;50.948;3.114;2023-02-18T15:23:53;6.07;;;3.50;;
18720;SDS011;9489;50.948;3.114;2023-02-18T15:26:19;7.80;;;4.57;;
18720;SDS011;9489;50.948;3.114;2023-02-18T15:28:57;9.18;;;4.13;;
18720;SDS011;9489;50.948;3.114;2023-02-18T15:31:27;10.55;;;4.07;;
18720;SDS011;9489;50.948;3.114;2023-02-18T15:33:55;9.40;;;4.55;;
18720;SDS011;9489;50.948;3.114;2023-02-18T15:36:21;9.93;;;4.57;;
18720;SDS011;9489;50.948;3.114;2023-02-18T15:38:50;5.95;;;4.40;;
18720;SDS011;9489;50.948;3.114;2023-02-18T15:41:16;10.63;;;4.40;;
18720;SDS011;9489;50.948;3.114;2023-02-18T15:46:44;8.95;;;4.50;;
18720;SDS011;9489;50.948;3.114;2023-02-18T15:49:10;10.05;;;4.45;;
18720;SDS011;9489;50.948;3.114;2023-02-18T15:51:40;9.95;;;4.82;;
18720;SDS011;9489;50.948;3.114;2023-02-18T15:54:12;8.23;;;3.42;;
18720;SDS011;9489;50.948;3.114;2023-02-18T15:56:43;9.95;;;5.13;;
18720;SDS011;9489;50.948;3.114;2023-02-18T15:59:20;10.35;;;5.15;;
18720;SDS011;9489;50.948;3.114;2023-02-18T16:04:33;12.73;;;5.03;;
18720;SDS011;9489;50.948;3.114;2023-02-18T16:07:04;9.63;;;4.97;;
18720;SDS011;9489;50.948;3.114;2023-02-18T16:09:43;10.43;;;5.75;;
18720;SDS011;9489;50.948;3.114;2023-02-18T16:12:13;12.65;;;5.97;;
18720;SDS011;9489;50.948;3.114;2023-02-18T16:14:56;13.13;;;5.93;;
18720;SDS011;9489;50.948;3.114;2023-02-18T16:17:26;12.52;;;6.10;;
18720;SDS011;9489;50.948;3.114;2023-02-18T16:19:54;14.30;;;5.78;;
18720;SDS011;9489;50.948;3.114;2023-02-18T16:22:31;14.43;;;6.50;;
18720;SDS011;9489;50.948;3.114;2023-02-18T16:30:24;15.43;;;7.57;;
18720;SDS011;9489;50.948;3.114;2023-02-18T16:32:52;16.30;;;6.53;;
18720;SDS011;9489;50.948;3.114;2023-02-18T16:35:19;13.18;;;6.88;;
18720;SDS011;9489;50.948;3.114;2023-02-18T16:37:45;12.73;;;6.22;;
18720;SDS011;9489;50.948;3.114;2023-02-18T16:42:48;12.50;;;6.35;;
18720;SDS011;9489;50.948;3.114;2023-02-18T16:45:15;10.50;;;6.28;;
18720;SDS011;9489;50.948;3.114;2023-02-18T16:47:42;14.35;;;7.00;;
18720;SDS011;9489;50.948;3.114;2023-02-18T16:50:16;12.10;;;7.97;;
18720;SDS011;9489;50.948;3.114;2023-02-18T16:52:45;11.63;;;7.07;;
18720;SDS011;9489;50.948;3.114;2023-02-18T16:55:14;10.70;;;6.55;;
18720;SDS011;9489;50.948;3.114;2023-02-18T16:57:47;12.38;;;6.60;;
18720;SDS011;9489;50.948;3.114;2023-02-18T17:00:13;10.40;;;6.88;;
18720;SDS011;9489;50.948;3.114;2023-02-18T17:02:45;10.18;;;7.32;;
18720;SDS011;9489;50.948;3.114;2023-02-18T17:05:20;9.65;;;7.38;;
18720;SDS011;9489;50.948;3.114;2023-02-18T17:07:48;12.77;;;7.60;;
18720;SDS011;9489;50.948;3.114;2023-02-18T17:10:14;9.32;;;6.57;;
18720;SDS011;9489;50.948;3.114;2023-02-18T17:12:40;12.45;;;7.10;;
18720;SDS011;9489;50.948;3.114;2023-02-18T17:15:12;10.10;;;6.78;;
18720;SDS011;9489;50.948;3.114;2023-02-18T17:17:45;10.10;;;6.60;;
18720;SDS011;9489;50.948;3.114;2023-02-18T17:20:10;13.73;;;7.70;;
18720;SDS011;9489;50.948;3.114;2023-02-18T17:22:39;10.20;;;6.65;;
18720;SDS011;9489;50.948;3.114;2023-02-18T17:25:10;10.55;;;7.43;;
18720;SDS011;9489;50.948;3.114;2023-02-18T17:27:38;11.02;;;7.50;;
18720;SDS011;9489;50.948;3.114;2023-02-18T17:30:04;12.50;;;8.18;;
18720;SDS011;9489;50.948;3.114;2023-02-18T17:32:30;12.48;;;8.82;;
18720;SDS011;9489;50.948;3.114;2023-02-18T17:34:55;11.52;;;7.68;;
18720;SDS011;9489;50.948;3.114;2023-02-18T17:37:21;11.68;;;8.70;;
18720;SDS011;9489;50.948;3.114;2023-02-18T17:39:47;11.07;;;8.73;;
18720;SDS011;9489;50.948;3.114;2023-02-18T17:42:13;11.40;;;8.85;;
18720;SDS011;9489;50.948;3.114;2023-02-18T17:44:39;12.15;;;9.38;;
18720;SDS011;9489;50.948;3.114;2023-02-18T17:47:05;10.93;;;8.57;;
18720;SDS011;9489;50.948;3.114;2023-02-18T17:49:30;10.65;;;8.52;;
18720;SDS011;9489;50.948;3.114;2023-02-18T17:51:56;10.55;;;8.70;;
18720;SDS011;9489;50.948;3.114;2023-02-18T17:54:22;11.93;;;9.02;;
18720;SDS011;9489;50.948;3.114;2023-02-18T17:56:48;9.13;;;8.13;;